createdAt,value
2022-08-22T00:00:15.260Z,16.90
2022-08-22T00:02:54.799Z,19.80
2022-08-22T00:02:59.904Z,20.10
2022-08-22T00:06:00.422Z,16.70
2022-08-22T00:08:36.456Z,16.60
2022-08-22T00:11:15.031Z,16.60
2022-08-22T00:14:01.992Z,16.50
2022-08-22T00:16:40.864Z,16.60
2022-08-22T00:19:19.666Z,16.50
2022-08-22T00:21:58.081Z,16.40
2022-08-22T00:24:32.433Z,16.40
2022-08-22T00:27:06.221Z,16.50
2022-08-22T00:29:43.533Z,16.50
2022-08-22T00:32:20.754Z,16.40
2022-08-22T00:34:59.506Z,16.40
2022-08-22T00:37:35.202Z,16.40
2022-08-22T00:40:20.219Z,16.40
2022-08-22T00:43:07.908Z,16.20
2022-08-22T00:46:09.144Z,16.20
2022-08-22T00:49:03.176Z,16.20
2022-08-22T00:51:59.834Z,16.10
2022-08-22T00:54:47.675Z,16.10
2022-08-22T00:57:35.557Z,16.00
2022-08-22T01:00:12.030Z,16.00
2022-08-22T01:03:11.524Z,16.00
2022-08-22T01:05:59.395Z,15.90
2022-08-22T01:08:55.651Z,16.00
2022-08-22T01:11:41.983Z,15.90
2022-08-22T01:14:34.548Z,15.80
2022-08-22T01:17:34.992Z,15.70
2022-08-22T01:20:45.528Z,15.60
2022-08-22T01:23:44.211Z,15.50
2022-08-22T01:26:51.135Z,15.30
2022-08-22T01:29:53.880Z,15.30
2022-08-22T01:32:58.345Z,15.20
2022-08-22T01:35:59.583Z,15.10
2022-08-22T01:38:58.145Z,15.10
2022-08-22T01:42:07.261Z,15.00
2022-08-22T01:45:00.333Z,14.80
2022-08-22T01:47:36.699Z,14.80
2022-08-22T01:50:20.514Z,14.80
2022-08-22T01:52:55.131Z,14.70
2022-08-22T01:55:32.403Z,14.80
2022-08-22T01:58:03.935Z,14.70
2022-08-22T02:00:52.916Z,14.60
2022-08-22T02:03:28.203Z,14.50
2022-08-22T02:06:05.249Z,14.50
2022-08-22T02:08:45.707Z,14.50
2022-08-22T02:11:35.323Z,14.50
2022-08-22T02:14:16.364Z,14.40
2022-08-22T02:16:49.047Z,14.40
2022-08-22T02:19:33.210Z,14.40
2022-08-22T02:22:09.170Z,14.30
2022-08-22T02:24:49.616Z,14.30
2022-08-22T02:27:27.196Z,14.30
2022-08-22T02:30:09.373Z,14.30
2022-08-22T02:32:51.703Z,14.20
2022-08-22T02:35:30.261Z,14.20
2022-08-22T02:38:17.169Z,14.20
2022-08-22T02:40:55.176Z,14.20
2022-08-22T02:43:29.044Z,14.30
2022-08-22T02:46:05.256Z,14.20
2022-08-22T02:48:43.593Z,14.20
2022-08-22T02:51:21.138Z,14.30
2022-08-22T02:53:56.581Z,14.20
2022-08-22T02:56:36.086Z,14.20
2022-08-22T02:59:17.947Z,14.30
2022-08-22T03:01:49.239Z,14.30
2022-08-22T03:04:26.226Z,14.30
2022-08-22T03:07:10.967Z,14.30
2022-08-22T03:09:48.754Z,14.20
2022-08-22T03:12:29.669Z,14.20
2022-08-22T03:15:13.160Z,14.30
2022-08-22T03:17:51.968Z,14.30
2022-08-22T03:20:38.232Z,14.40
2022-08-22T03:23:16.553Z,14.40
2022-08-22T03:25:55.891Z,14.30
2022-08-22T03:28:34.426Z,14.30
2022-08-22T03:31:14.989Z,14.30
2022-08-22T03:33:46.079Z,14.20
2022-08-22T03:36:30.123Z,14.30
2022-08-22T03:39:17.406Z,14.30
2022-08-22T03:42:23.295Z,14.40
2022-08-22T03:45:29.622Z,14.40
2022-08-22T03:48:40.430Z,14.40
2022-08-22T03:51:34.958Z,14.40
2022-08-22T03:54:37.384Z,14.40
2022-08-22T03:57:46.214Z,14.60
2022-08-22T04:00:59.240Z,14.60
2022-08-22T04:04:05.749Z,14.80
2022-08-22T04:07:28.384Z,14.70
2022-08-22T04:11:03.472Z,14.70
2022-08-22T04:13:56.851Z,14.70
2022-08-22T04:17:02.440Z,14.70
2022-08-22T04:19:54.665Z,14.70
2022-08-22T04:22:59.875Z,14.80
2022-08-22T04:25:35.701Z,14.80
2022-08-22T04:28:28.665Z,14.80
2022-08-22T04:31:06.612Z,14.80
2022-08-22T04:33:41.463Z,14.80
2022-08-22T04:36:50.855Z,14.90
2022-08-22T04:39:26.556Z,14.90
2022-08-22T04:42:16.359Z,14.80
2022-08-22T04:44:57.766Z,14.80
2022-08-22T04:47:33.976Z,14.80
2022-08-22T04:50:10.446Z,14.80
2022-08-22T04:53:03.667Z,14.90
2022-08-22T04:55:39.240Z,14.90
2022-08-22T04:58:23.955Z,15.00
2022-08-22T05:00:58.983Z,15.00
2022-08-22T05:03:30.354Z,15.00
2022-08-22T05:06:02.858Z,15.00
2022-08-22T05:08:36.620Z,15.10
2022-08-22T05:11:11.973Z,15.20
2022-08-22T05:13:47.188Z,15.20
2022-08-22T05:16:21.770Z,15.30
2022-08-22T05:18:58.612Z,15.40
2022-08-22T05:21:36.664Z,15.40
2022-08-22T05:24:13.911Z,15.50
2022-08-22T05:26:48.233Z,15.60
2022-08-22T05:29:22.821Z,15.70
2022-08-22T05:31:56.132Z,15.80
2022-08-22T05:34:27.106Z,16.00
2022-08-22T05:37:01.703Z,16.20
2022-08-22T05:39:34.416Z,16.30
2022-08-22T05:42:05.166Z,16.40
2022-08-22T05:44:37.768Z,16.50
2022-08-22T05:47:21.707Z,16.60
2022-08-22T05:50:00.008Z,16.80
2022-08-22T05:52:42.321Z,17.00
2022-08-22T05:55:24.454Z,17.30
2022-08-22T05:58:14.209Z,17.50
2022-08-22T06:00:47.673Z,17.80
2022-08-22T06:03:21.028Z,18.00
2022-08-22T06:05:54.257Z,18.20
2022-08-22T06:08:29.809Z,18.30
2022-08-22T06:11:04.754Z,18.50
2022-08-22T06:13:41.333Z,18.70
2022-08-22T06:16:17.106Z,18.90
2022-08-22T06:18:46.947Z,19.10
2022-08-22T06:21:22.415Z,19.40
2022-08-22T06:23:56.911Z,19.70
2022-08-22T06:26:31.415Z,20.00
2022-08-22T06:29:02.847Z,20.20
2022-08-22T06:31:35.667Z,20.50
2022-08-22T06:34:09.475Z,20.70
2022-08-22T06:36:41.323Z,20.90
2022-08-22T06:39:18.718Z,21.00
2022-08-22T06:41:54.016Z,21.20
2022-08-22T06:44:27.035Z,21.40
2022-08-22T06:47:00.030Z,21.50
2022-08-22T06:49:31.338Z,21.60
2022-08-22T06:52:03.574Z,21.80
2022-08-22T06:54:36.499Z,21.80
2022-08-22T06:57:08.197Z,21.90
2022-08-22T06:59:40.566Z,21.90
2022-08-22T07:02:18.207Z,22.10
2022-08-22T07:04:50.686Z,22.00
2022-08-22T07:07:21.244Z,22.20
2022-08-22T07:09:55.573Z,22.30
2022-08-22T07:12:30.734Z,22.40
2022-08-22T07:15:12.501Z,22.50
2022-08-22T07:17:50.916Z,22.70
2022-08-22T07:20:26.031Z,22.80
2022-08-22T07:22:57.405Z,22.80
2022-08-22T07:25:26.991Z,23.00
2022-08-22T07:28:07.892Z,23.10
2022-08-22T07:30:46.445Z,23.40
2022-08-22T07:33:29.944Z,23.60
2022-08-22T07:36:04.275Z,23.80
2022-08-22T07:38:43.805Z,24.10
2022-08-22T07:41:16.723Z,24.00
2022-08-22T07:43:49.905Z,24.10
2022-08-22T07:46:28.989Z,24.30
2022-08-22T07:49:10.014Z,24.60
2022-08-22T07:51:45.197Z,24.80
2022-08-22T07:54:16.720Z,25.00
2022-08-22T07:56:53.276Z,25.10
2022-08-22T07:59:24.487Z,25.10
2022-08-22T08:01:57.045Z,25.10
2022-08-22T08:04:30.976Z,25.10
2022-08-22T08:07:01.912Z,25.30
2022-08-22T08:09:37.141Z,25.10
2022-08-22T08:12:09.166Z,25.20
2022-08-22T08:14:42.530Z,25.40
2022-08-22T08:17:18.018Z,25.60
2022-08-22T08:19:48.172Z,25.60
2022-08-22T08:22:21.653Z,25.60
2022-08-22T08:24:52.508Z,25.60
2022-08-22T08:27:42.785Z,25.80
2022-08-22T08:30:20.046Z,26.10
2022-08-22T08:32:57.543Z,26.10
2022-08-22T08:36:02.373Z,26.20
2022-08-22T08:38:37.295Z,26.10
2022-08-22T08:41:37.348Z,26.00
2022-08-22T08:44:18.289Z,25.80
2022-08-22T08:47:26.025Z,25.90
2022-08-22T08:50:20.740Z,25.90
2022-08-22T08:53:28.317Z,26.00
2022-08-22T08:56:05.226Z,26.20
2022-08-22T08:58:41.066Z,26.20
2022-08-22T09:01:29.751Z,25.90
2022-08-22T09:04:27.496Z,25.50
2022-08-22T09:07:36.452Z,25.20
2022-08-22T09:10:20.686Z,25.40
2022-08-22T09:13:12.281Z,25.70
2022-08-22T09:16:13.233Z,26.00
2022-08-22T09:19:08.705Z,26.30
2022-08-22T09:22:04.230Z,26.20
2022-08-22T09:25:01.504Z,26.20
2022-08-22T09:27:40.220Z,26.50
2022-08-22T09:30:12.989Z,26.70
2022-08-22T09:32:48.844Z,26.80
2022-08-22T09:35:29.528Z,26.90
2022-08-22T09:38:20.256Z,27.00
2022-08-22T09:40:55.056Z,27.20
2022-08-22T09:43:33.709Z,27.40
2022-08-22T09:46:13.363Z,27.80
2022-08-22T09:48:59.726Z,28.10
2022-08-22T09:51:38.990Z,28.50
2022-08-22T09:54:36.350Z,29.10
2022-08-22T09:57:33.601Z,29.50
2022-08-22T10:00:22.470Z,30.70
2022-08-22T10:03:07.546Z,31.10
2022-08-22T10:05:45.653Z,31.00
2022-08-22T10:08:31.546Z,31.00
2022-08-22T10:11:19.725Z,30.30
2022-08-22T10:14:00.861Z,29.70
2022-08-22T10:16:58.739Z,30.20
2022-08-22T10:19:34.251Z,30.80
2022-08-22T10:22:24.256Z,31.50
2022-08-22T10:25:12.811Z,31.60
2022-08-22T10:28:02.303Z,31.40
2022-08-22T10:30:37.698Z,30.60
2022-08-22T10:33:16.904Z,29.80
2022-08-22T10:35:59.384Z,30.00
2022-08-22T10:38:31.914Z,30.00
2022-08-22T10:41:09.885Z,29.90
2022-08-22T10:43:49.442Z,30.40
2022-08-22T10:46:35.975Z,30.80
2022-08-22T10:49:10.132Z,31.30
2022-08-22T10:51:48.455Z,30.90
2022-08-22T10:54:30.139Z,31.00
2022-08-22T10:57:11.546Z,31.30
2022-08-22T10:59:47.873Z,30.40
2022-08-22T11:02:55.663Z,30.70
2022-08-22T11:05:50.061Z,30.50
2022-08-22T11:08:37.423Z,30.10
2022-08-22T11:11:19.617Z,30.00
2022-08-22T11:14:09.465Z,30.20
2022-08-22T11:16:55.341Z,30.40
2022-08-22T11:19:44.762Z,30.70
2022-08-22T11:22:30.669Z,30.90
2022-08-22T11:25:23.788Z,31.50
2022-08-22T11:28:26.037Z,31.50
2022-08-22T11:31:07.253Z,31.40
2022-08-22T11:33:46.335Z,30.80
2022-08-22T11:36:31.935Z,31.00
2022-08-22T11:39:13.758Z,30.60
2022-08-22T11:41:56.664Z,30.40
2022-08-22T11:44:32.060Z,30.50
2022-08-22T11:47:09.281Z,30.70
2022-08-22T11:49:52.430Z,30.90
2022-08-22T11:52:28.339Z,31.30
2022-08-22T11:55:22.345Z,31.20
2022-08-22T11:57:54.291Z,31.20
2022-08-22T12:00:30.333Z,31.40
2022-08-22T12:03:23.526Z,31.20
2022-08-22T12:05:59.589Z,32.00
2022-08-22T12:09:01.792Z,33.00
2022-08-22T12:11:42.179Z,33.30
2022-08-22T12:14:20.212Z,33.30
2022-08-22T12:17:28.471Z,33.10
2022-08-22T12:20:16.368Z,33.00
2022-08-22T12:23:11.202Z,33.10
2022-08-22T12:25:57.185Z,33.40
2022-08-22T12:28:36.637Z,34.00
2022-08-22T12:31:16.995Z,34.80
2022-08-22T12:34:02.376Z,36.50
2022-08-22T12:37:00.709Z,36.50
2022-08-22T12:40:03.945Z,35.70
2022-08-22T12:43:05.221Z,34.70
2022-08-22T12:45:56.296Z,35.40
2022-08-22T12:48:45.591Z,36.60
2022-08-22T12:51:29.486Z,36.50
2022-08-22T12:54:24.479Z,36.90
2022-08-22T12:57:03.293Z,37.70
2022-08-22T12:59:55.908Z,37.30
2022-08-22T13:02:29.776Z,37.80
2022-08-22T13:05:03.645Z,37.30
2022-08-22T13:07:37.966Z,36.20
2022-08-22T13:10:39.399Z,35.30
2022-08-22T13:13:14.227Z,35.60
2022-08-22T13:15:53.604Z,35.90
2022-08-22T13:18:31.103Z,34.80
2022-08-22T13:21:04.546Z,33.80
2022-08-22T13:23:39.636Z,34.60
2022-08-22T13:26:12.765Z,35.70
2022-08-22T13:29:24.005Z,35.30
2022-08-22T13:31:55.354Z,33.80
2022-08-22T13:34:40.128Z,35.30
2022-08-22T13:37:16.377Z,36.80
2022-08-22T13:39:49.148Z,37.70
2022-08-22T13:42:30.561Z,37.30
2022-08-22T13:45:11.827Z,36.90
2022-08-22T13:47:56.034Z,35.70
2022-08-22T13:50:30.081Z,35.40
2022-08-22T13:53:30.472Z,35.00
2022-08-22T13:56:07.326Z,34.40
2022-08-22T13:58:47.234Z,33.80
2022-08-22T14:01:44.729Z,33.00
2022-08-22T14:04:32.208Z,32.80
2022-08-22T14:07:25.455Z,33.60
2022-08-22T14:09:59.516Z,35.30
2022-08-22T14:12:50.677Z,37.30
2022-08-22T14:15:23.537Z,38.10
2022-08-22T14:17:57.728Z,38.10
2022-08-22T14:20:33.441Z,38.50
2022-08-22T14:23:08.829Z,39.10
2022-08-22T14:25:41.255Z,38.80
2022-08-22T14:28:23.174Z,39.10
2022-08-22T14:31:01.915Z,39.10
2022-08-22T14:33:39.725Z,38.80
2022-08-22T14:36:17.397Z,37.70
2022-08-22T14:38:51.744Z,36.90
2022-08-22T14:41:52.430Z,36.90
2022-08-22T14:44:24.144Z,37.40
2022-08-22T14:46:56.417Z,38.10
2022-08-22T14:49:52.336Z,37.90
2022-08-22T14:52:38.191Z,39.00
2022-08-22T14:55:17.459Z,39.30
2022-08-22T14:57:55.628Z,38.70
2022-08-22T15:00:32.452Z,38.20
2022-08-22T15:03:14.180Z,38.70
2022-08-22T15:05:47.790Z,39.40
2022-08-22T15:08:27.489Z,38.80
2022-08-22T15:11:22.351Z,39.40
2022-08-22T15:13:57.095Z,38.80
2022-08-22T15:16:32.971Z,37.80
2022-08-22T15:19:02.970Z,36.80
2022-08-22T15:21:41.267Z,37.30
2022-08-22T15:24:17.343Z,37.30
2022-08-22T15:26:52.300Z,37.00
2022-08-22T15:29:26.810Z,36.70
2022-08-22T15:32:04.712Z,36.10
2022-08-22T15:34:38.457Z,35.80
2022-08-22T15:37:29.904Z,35.30
2022-08-22T15:40:12.755Z,34.50
2022-08-22T15:42:44.592Z,34.10
2022-08-22T15:45:33.928Z,33.80
2022-08-22T15:48:08.578Z,32.90
2022-08-22T15:50:41.839Z,32.70
2022-08-22T15:53:24.096Z,32.40
2022-08-22T15:56:29.806Z,32.10
2022-08-22T15:59:48.040Z,31.70
2022-08-22T16:02:29.013Z,31.50
2022-08-22T16:05:20.853Z,31.50
2022-08-22T16:08:00.079Z,31.60
2022-08-22T16:10:36.512Z,31.40
2022-08-22T16:13:33.822Z,31.50
2022-08-22T16:16:07.279Z,31.50
2022-08-22T16:19:21.664Z,31.50
2022-08-22T16:22:14.419Z,31.40
2022-08-22T16:25:10.982Z,31.10
2022-08-22T16:27:55.738Z,30.80
2022-08-22T16:30:38.621Z,30.70
2022-08-22T16:33:17.971Z,30.70
2022-08-22T16:36:24.772Z,30.50
2022-08-22T16:38:57.839Z,30.50
2022-08-22T16:41:36.165Z,30.40
2022-08-22T16:44:24.919Z,30.30
2022-08-22T16:46:55.912Z,30.30
2022-08-22T16:49:31.139Z,30.40
2022-08-22T16:52:37.047Z,30.50
2022-08-22T16:55:28.140Z,31.20
2022-08-22T16:58:07.004Z,32.30
2022-08-22T17:00:51.579Z,33.60
2022-08-22T17:03:29.367Z,34.50
2022-08-22T17:06:16.132Z,35.40
2022-08-22T17:08:58.347Z,36.10
2022-08-22T17:11:42.413Z,35.30
2022-08-22T17:14:21.941Z,33.80
2022-08-22T17:17:06.911Z,33.00
2022-08-22T17:19:56.184Z,32.50
2022-08-22T17:22:33.047Z,32.50
2022-08-22T17:25:15.100Z,32.40
2022-08-22T17:27:48.114Z,31.90
2022-08-22T17:30:23.767Z,31.50
2022-08-22T17:33:12.331Z,31.20
2022-08-22T17:35:59.202Z,31.10
2022-08-22T17:38:42.284Z,30.70
2022-08-22T17:41:27.711Z,30.40
2022-08-22T17:44:03.405Z,30.00
2022-08-22T17:46:42.853Z,29.80
2022-08-22T17:49:21.858Z,29.60
2022-08-22T17:51:58.462Z,29.40
2022-08-22T17:54:34.419Z,29.20
2022-08-22T17:57:07.972Z,29.00
2022-08-22T17:59:46.786Z,28.80
2022-08-22T18:02:20.311Z,28.70
2022-08-22T18:05:01.838Z,28.60
2022-08-22T18:07:43.002Z,28.50
2022-08-22T18:10:23.467Z,28.40
2022-08-22T18:13:02.411Z,28.30
2022-08-22T18:15:43.672Z,28.20
2022-08-22T18:18:28.236Z,28.00
2022-08-22T18:21:04.520Z,27.90
2022-08-22T18:23:40.146Z,27.70
2022-08-22T18:26:24.739Z,27.60
2022-08-22T18:29:01.395Z,27.50
2022-08-22T18:31:41.335Z,27.40
2022-08-22T18:34:19.885Z,27.30
2022-08-22T18:36:57.349Z,27.20
2022-08-22T18:39:31.209Z,27.00
2022-08-22T18:42:07.082Z,26.90
2022-08-22T18:44:40.034Z,26.80
2022-08-22T18:47:18.463Z,26.70
2022-08-22T18:49:54.442Z,26.60
2022-08-22T18:52:41.051Z,26.50
2022-08-22T18:55:27.632Z,26.40
2022-08-22T18:58:16.537Z,26.30
2022-08-22T19:01:09.996Z,26.30
2022-08-22T19:04:02.460Z,26.20
2022-08-22T19:06:55.358Z,26.00
2022-08-22T19:09:58.225Z,25.90
2022-08-22T19:12:45.202Z,25.80
2022-08-22T19:15:27.820Z,25.70
2022-08-22T19:18:18.572Z,25.60
2022-08-22T19:21:51.153Z,25.50
2022-08-22T19:24:59.802Z,25.40
2022-08-22T19:27:31.587Z,25.30
2022-08-22T19:30:03.156Z,25.30
2022-08-22T19:33:05.329Z,25.30
2022-08-22T19:36:15.635Z,25.20
2022-08-22T19:38:54.723Z,25.10
2022-08-22T19:41:53.008Z,25.00
2022-08-22T19:44:40.631Z,25.00
2022-08-22T19:47:25.690Z,25.00
2022-08-22T19:50:02.039Z,25.10
2022-08-22T19:53:04.322Z,25.00
2022-08-22T19:55:57.525Z,25.00
2022-08-22T19:58:36.861Z,25.00
2022-08-22T20:01:13.814Z,25.00
2022-08-22T20:03:51.994Z,24.90
2022-08-22T20:06:44.274Z,24.80
2022-08-22T20:09:40.295Z,24.70
2022-08-22T20:12:16.092Z,24.70
2022-08-22T20:14:48.841Z,24.60
2022-08-22T20:17:40.793Z,24.60
2022-08-22T20:20:18.708Z,24.60
2022-08-22T20:22:54.995Z,24.60
2022-08-22T20:25:43.005Z,24.50
2022-08-22T20:28:38.286Z,24.50
2022-08-22T20:31:13.717Z,24.40
2022-08-22T20:33:46.010Z,24.30
2022-08-22T20:36:28.480Z,24.20
2022-08-22T20:39:02.767Z,24.20
2022-08-22T20:41:36.799Z,24.00
2022-08-22T20:44:13.084Z,23.80
2022-08-22T20:46:55.240Z,23.90
2022-08-22T20:49:28.655Z,23.80
2022-08-22T20:52:00.901Z,23.70
2022-08-22T20:54:32.127Z,23.70
2022-08-22T20:57:02.648Z,23.80
2022-08-22T20:59:36.110Z,23.60
2022-08-22T21:02:20.022Z,23.60
2022-08-22T21:04:53.785Z,23.50
2022-08-22T21:07:26.006Z,23.40
2022-08-22T21:10:25.229Z,23.20
2022-08-22T21:13:06.018Z,23.10
2022-08-22T21:15:38.365Z,23.00
2022-08-22T21:18:09.179Z,23.00
2022-08-22T21:20:39.774Z,22.80
2022-08-22T21:23:13.319Z,22.70
2022-08-22T21:25:57.291Z,22.60
2022-08-22T21:28:34.908Z,22.40
2022-08-22T21:31:12.382Z,22.30
2022-08-22T21:33:48.424Z,22.20
2022-08-22T21:36:19.789Z,22.00
2022-08-22T21:38:51.331Z,21.90
2022-08-22T21:41:30.755Z,21.80
2022-08-22T21:44:28.503Z,21.70
2022-08-22T21:46:58.832Z,21.60
2022-08-22T21:49:31.055Z,21.60
2022-08-22T21:51:59.620Z,21.60
2022-08-22T21:54:40.129Z,21.50
2022-08-22T21:57:38.031Z,21.30
2022-08-22T22:00:14.417Z,21.10
2022-08-22T22:02:46.995Z,21.00
2022-08-22T22:05:19.581Z,20.90
2022-08-22T22:07:49.473Z,20.80
2022-08-22T22:10:22.871Z,20.80
2022-08-22T22:12:52.611Z,20.90
2022-08-22T22:15:24.602Z,21.20
2022-08-22T22:17:54.281Z,21.30
2022-08-22T22:20:27.980Z,21.10
2022-08-22T22:22:57.266Z,21.00
2022-08-22T22:25:40.998Z,20.90
2022-08-22T22:28:14.194Z,20.80
2022-08-22T22:30:43.941Z,20.70
2022-08-22T22:33:13.215Z,20.70
2022-08-22T22:35:43.488Z,20.60
2022-08-22T22:38:13.125Z,20.60
2022-08-22T22:40:42.825Z,20.40
2022-08-22T22:51:38.472Z,20.30
2022-08-22T22:54:07.190Z,20.30
2022-08-22T22:56:39.701Z,20.20
2022-08-22T22:59:13.071Z,20.20
2022-08-22T23:02:02.640Z,20.10
2022-08-22T23:04:35.330Z,20.10
2022-08-22T23:07:06.639Z,20.10
2022-08-22T23:09:38.768Z,20.20
2022-08-22T23:12:15.102Z,20.10
2022-08-22T23:14:43.970Z,20.20
2022-08-22T23:17:12.516Z,20.20
2022-08-22T23:19:42.319Z,20.40
2022-08-22T23:22:16.676Z,20.40
2022-08-22T23:24:46.011Z,20.40
2022-08-22T23:27:14.597Z,20.50
2022-08-22T23:29:43.809Z,20.40
2022-08-22T23:32:13.685Z,20.30
2022-08-22T23:34:46.781Z,20.30
2022-08-22T23:37:18.946Z,20.20
2022-08-22T23:39:48.025Z,20.10
2022-08-22T23:42:18.202Z,20.10
2022-08-22T23:44:47.712Z,20.10
2022-08-22T23:47:17.275Z,20.00
2022-08-22T23:49:45.992Z,20.00
2022-08-22T23:52:16.407Z,19.90
2022-08-22T23:54:45.081Z,19.90
2022-08-22T23:57:13.745Z,19.90
2022-08-22T23:59:48.016Z,19.90
